sensor_id;sensor_type;location;lat;lon;timestamp;pressure;altitude;pressure_sealevel;temperature;humidity
74798;BME280;63326;45.088;7.658;2023-12-29T00:01:23;99579.72;;;2.79;100.00
74798;BME280;63326;45.088;7.658;2023-12-29T00:03:50;99548.88;;;2.42;100.00
74798;BME280;63326;45.088;7.658;2023-12-29T00:06:17;99523.59;;;2.26;100.00
74798;BME280;63326;45.088;7.658;2023-12-29T00:08:44;99533.38;;;2.25;100.00
74798;BME280;63326;45.088;7.658;2023-12-29T00:11:17;99562.91;;;2.32;100.00
74798;BME280;63326;45.088;7.658;2023-12-29T00:13:43;99545.41;;;2.18;100.00
74798;BME280;63326;45.088;7.658;2023-12-29T00:16:10;99561.69;;;2.25;100.00
74798;BME280;63326;45.088;7.658;2023-12-29T00:18:37;99500.06;;;1.62;100.00
74798;BME280;63326;45.088;7.658;2023-12-29T00:21:05;99565.22;;;1.88;100.00
74798;BME280;63326;45.088;7.658;2023-12-29T00:23:33;99542.31;;;1.64;100.00
74798;BME280;63326;45.088;7.658;2023-12-29T00:26:00;99475.13;;;1.17;100.00
74798;BME280;63326;45.088;7.658;2023-12-29T00:28:27;99533.34;;;1.53;100.00
74798;BME280;63326;45.088;7.658;2023-12-29T00:30:53;99499.41;;;1.35;100.00
74798;BME280;63326;45.088;7.658;2023-12-29T00:33:28;99543.91;;;1.66;100.00
74798;BME280;63326;45.088;7.658;2023-12-29T00:35:57;99521.59;;;1.57;100.00
74798;BME280;63326;45.088;7.658;2023-12-29T00:38:27;99534.38;;;1.64;100.00
74798;BME280;63326;45.088;7.658;2023-12-29T00:40:55;99511.97;;;1.80;100.00
74798;BME280;63326;45.088;7.658;2023-12-29T00:43:21;99548.84;;;2.07;100.00
74798;BME280;63326;45.088;7.658;2023-12-29T00:45:49;99551.59;;;2.06;100.00
74798;BME280;63326;45.088;7.658;2023-12-29T00:48:16;99486.28;;;1.70;100.00
74798;BME280;63326;45.088;7.658;2023-12-29T00:50:43;99534.97;;;1.80;100.00
74798;BME280;63326;45.088;7.658;2023-12-29T00:53:09;99535.31;;;1.63;100.00
74798;BME280;63326;45.088;7.658;2023-12-29T00:55:36;99555.31;;;1.79;100.00
74798;BME280;63326;45.088;7.658;2023-12-29T00:58:03;99547.47;;;2.02;100.00
74798;BME280;63326;45.088;7.658;2023-12-29T01:00:30;99543.94;;;1.90;100.00
74798;BME280;63326;45.088;7.658;2023-12-29T01:02:56;99559.53;;;1.82;100.00
74798;BME280;63326;45.088;7.658;2023-12-29T01:05:24;99507.13;;;1.38;100.00
74798;BME280;63326;45.088;7.658;2023-12-29T01:07:50;99529.16;;;1.38;100.00
74798;BME280;63326;45.088;7.658;2023-12-29T01:10:17;99534.47;;;1.25;100.00
74798;BME280;63326;45.088;7.658;2023-12-29T01:12:44;99562.81;;;1.36;100.00
74798;BME280;63326;45.088;7.658;2023-12-29T01:15:11;99517.22;;;1.20;100.00
74798;BME280;63326;45.088;7.658;2023-12-29T01:17:38;99534.38;;;1.27;100.00
74798;BME280;63326;45.088;7.658;2023-12-29T01:20:05;99549.06;;;1.31;100.00
74798;BME280;63326;45.088;7.658;2023-12-29T01:22:32;99506.44;;;1.10;100.00
74798;BME280;63326;45.088;7.658;2023-12-29T01:24:59;99526.00;;;1.20;100.00
74798;BME280;63326;45.088;7.658;2023-12-29T01:27:27;99490.25;;;1.02;100.00
74798;BME280;63326;45.088;7.658;2023-12-29T01:29:54;99521.34;;;1.24;100.00
74798;BME280;63326;45.088;7.658;2023-12-29T01:32:21;99540.06;;;1.46;100.00
74798;BME280;63326;45.088;7.658;2023-12-29T01:34:48;99523.22;;;1.47;100.00
74798;BME280;63326;45.088;7.658;2023-12-29T01:37:15;99520.38;;;1.38;100.00
74798;BME280;63326;45.088;7.658;2023-12-29T01:39:42;99526.81;;;1.46;100.00
74798;BME280;63326;45.088;7.658;2023-12-29T01:42:09;99523.03;;;1.38;100.00
74798;BME280;63326;45.088;7.658;2023-12-29T01:44:38;99522.38;;;1.34;100.00
74798;BME280;63326;45.088;7.658;2023-12-29T01:47:11;99540.16;;;1.32;100.00
74798;BME280;63326;45.088;7.658;2023-12-29T01:49:40;99547.59;;;1.27;100.00
74798;BME280;63326;45.088;7.658;2023-12-29T01:52:07;99530.03;;;1.00;100.00
74798;BME280;63326;45.088;7.658;2023-12-29T01:54:35;99550.97;;;1.03;100.00
74798;BME280;63326;45.088;7.658;2023-12-29T01:57:06;99538.72;;;0.90;100.00
74798;BME280;63326;45.088;7.658;2023-12-29T01:59:35;99520.44;;;0.87;100.00
74798;BME280;63326;45.088;7.658;2023-12-29T02:02:04;99551.09;;;1.15;100.00
74798;BME280;63326;45.088;7.658;2023-12-29T02:04:31;99518.09;;;0.95;100.00
74798;BME280;63326;45.088;7.658;2023-12-29T02:06:58;99538.59;;;1.04;100.00
74798;BME280;63326;45.088;7.658;2023-12-29T02:09:25;99538.94;;;1.25;100.00
74798;BME280;63326;45.088;7.658;2023-12-29T02:11:52;99485.09;;;0.88;100.00
74798;BME280;63326;45.088;7.658;2023-12-29T02:14:19;99512.59;;;0.98;100.00
74798;BME280;63326;45.088;7.658;2023-12-29T02:22:00;99526.03;;;1.08;100.00
74798;BME280;63326;45.088;7.658;2023-12-29T02:24:27;99527.94;;;1.06;100.00
74798;BME280;63326;45.088;7.658;2023-12-29T02:26:58;99534.50;;;1.00;100.00
74798;BME280;63326;45.088;7.658;2023-12-29T02:29:29;99531.13;;;0.85;100.00
74798;BME280;63326;45.088;7.658;2023-12-29T02:31:59;99525.00;;;0.85;100.00
74798;BME280;63326;45.088;7.658;2023-12-29T02:34:28;99516.84;;;0.75;100.00
74798;BME280;63326;45.088;7.658;2023-12-29T02:36:56;99446.81;;;0.17;100.00
74798;BME280;63326;45.088;7.658;2023-12-29T02:39:23;99488.47;;;0.52;100.00
74798;BME280;63326;45.088;7.658;2023-12-29T02:41:50;99518.72;;;0.60;100.00
74798;BME280;63326;45.088;7.658;2023-12-29T02:44:17;99492.41;;;0.59;100.00
74798;BME280;63326;45.088;7.658;2023-12-29T02:46:44;99477.38;;;0.47;100.00
74798;BME280;63326;45.088;7.658;2023-12-29T02:49:11;99503.38;;;0.53;100.00
74798;BME280;63326;45.088;7.658;2023-12-29T02:51:39;99510.28;;;0.55;100.00
74798;BME280;63326;45.088;7.658;2023-12-29T02:54:07;99478.84;;;0.38;100.00
74798;BME280;63326;45.088;7.658;2023-12-29T02:56:34;99501.59;;;0.66;100.00
74798;BME280;63326;45.088;7.658;2023-12-29T02:59:02;99490.06;;;0.80;100.00
74798;BME280;63326;45.088;7.658;2023-12-29T03:01:29;99500.34;;;0.97;100.00
74798;BME280;63326;45.088;7.658;2023-12-29T03:03:56;99460.47;;;0.75;100.00
74798;BME280;63326;45.088;7.658;2023-12-29T03:06:23;99485.31;;;0.85;100.00
74798;BME280;63326;45.088;7.658;2023-12-29T03:08:49;99475.28;;;0.77;100.00
74798;BME280;63326;45.088;7.658;2023-12-29T03:11:16;99474.94;;;0.69;100.00
74798;BME280;63326;45.088;7.658;2023-12-29T03:13:43;99467.53;;;0.61;100.00
74798;BME280;63326;45.088;7.658;2023-12-29T03:16:10;99476.75;;;0.68;100.00
74798;BME280;63326;45.088;7.658;2023-12-29T03:18:37;99466.81;;;0.59;100.00
74798;BME280;63326;45.088;7.658;2023-12-29T03:21:06;99452.66;;;0.48;100.00
74798;BME280;63326;45.088;7.658;2023-12-29T03:23:34;99432.13;;;0.38;100.00
74798;BME280;63326;45.088;7.658;2023-12-29T03:26:02;99436.56;;;0.51;100.00
74798;BME280;63326;45.088;7.658;2023-12-29T03:28:29;99466.91;;;0.70;100.00
74798;BME280;63326;45.088;7.658;2023-12-29T03:30:56;99451.38;;;0.79;100.00
74798;BME280;63326;45.088;7.658;2023-12-29T03:33:23;99411.63;;;0.67;100.00
74798;BME280;63326;45.088;7.658;2023-12-29T03:35:50;99459.72;;;0.98;100.00
74798;BME280;63326;45.088;7.658;2023-12-29T03:38:16;99427.69;;;0.77;100.00
74798;BME280;63326;45.088;7.658;2023-12-29T03:40:43;99455.88;;;1.02;100.00
74798;BME280;63326;45.088;7.658;2023-12-29T03:43:11;99444.38;;;0.90;100.00
74798;BME280;63326;45.088;7.658;2023-12-29T03:45:38;99421.66;;;0.75;100.00
74798;BME280;63326;45.088;7.658;2023-12-29T03:48:06;99441.53;;;0.81;100.00
74798;BME280;63326;45.088;7.658;2023-12-29T03:50:35;99419.13;;;0.61;100.00
74798;BME280;63326;45.088;7.658;2023-12-29T03:53:02;99425.38;;;0.60;100.00
74798;BME280;63326;45.088;7.658;2023-12-29T03:55:29;99397.69;;;0.40;100.00
74798;BME280;63326;45.088;7.658;2023-12-29T03:57:55;99438.47;;;0.61;100.00
74798;BME280;63326;45.088;7.658;2023-12-29T04:00:23;99379.81;;;0.31;100.00
74798;BME280;63326;45.088;7.658;2023-12-29T04:02:50;99426.31;;;0.71;100.00
74798;BME280;63326;45.088;7.658;2023-12-29T04:05:17;99417.31;;;0.87;100.00
74798;BME280;63326;45.088;7.658;2023-12-29T04:07:43;99425.09;;;1.01;100.00
74798;BME280;63326;45.088;7.658;2023-12-29T04:10:10;99400.59;;;0.86;100.00
74798;BME280;63326;45.088;7.658;2023-12-29T04:12:37;99418.19;;;0.75;100.00
74798;BME280;63326;45.088;7.658;2023-12-29T04:15:04;99420.91;;;0.73;100.00
74798;BME280;63326;45.088;7.658;2023-12-29T04:17:31;99430.34;;;0.77;100.00
74798;BME280;63326;45.088;7.658;2023-12-29T04:19:57;99415.00;;;0.69;100.00
74798;BME280;63326;45.088;7.658;2023-12-29T04:22:24;99406.34;;;0.67;100.00
74798;BME280;63326;45.088;7.658;2023-12-29T04:24:51;99412.91;;;0.75;100.00
74798;BME280;63326;45.088;7.658;2023-12-29T04:27:17;99407.59;;;0.75;100.00
74798;BME280;63326;45.088;7.658;2023-12-29T04:29:44;99388.44;;;0.71;100.00
74798;BME280;63326;45.088;7.658;2023-12-29T04:32:11;99421.75;;;0.73;100.00
74798;BME280;63326;45.088;7.658;2023-12-29T04:34:38;99414.06;;;0.58;100.00
74798;BME280;63326;45.088;7.658;2023-12-29T04:37:05;99404.13;;;0.49;100.00
74798;BME280;63326;45.088;7.658;2023-12-29T04:39:32;99416.59;;;0.59;100.00
74798;BME280;63326;45.088;7.658;2023-12-29T04:41:59;99415.84;;;0.70;100.00
74798;BME280;63326;45.088;7.658;2023-12-29T04:44:25;99431.78;;;0.81;100.00
74798;BME280;63326;45.088;7.658;2023-12-29T04:46:52;99399.13;;;0.69;100.00
74798;BME280;63326;45.088;7.658;2023-12-29T04:49:19;99373.34;;;0.60;100.00
74798;BME280;63326;45.088;7.658;2023-12-29T04:51:45;99423.63;;;0.97;100.00
74798;BME280;63326;45.088;7.658;2023-12-29T04:54:14;99413.66;;;1.00;100.00
74798;BME280;63326;45.088;7.658;2023-12-29T04:56:41;99398.03;;;0.97;100.00
74798;BME280;63326;45.088;7.658;2023-12-29T04:59:08;99402.66;;;1.07;100.00
74798;BME280;63326;45.088;7.658;2023-12-29T05:01:35;99400.75;;;1.09;100.00
74798;BME280;63326;45.088;7.658;2023-12-29T05:04:02;99400.13;;;1.05;100.00
74798;BME280;63326;45.088;7.658;2023-12-29T05:06:28;99406.28;;;1.06;100.00
74798;BME280;63326;45.088;7.658;2023-12-29T05:08:55;99397.38;;;1.07;100.00
74798;BME280;63326;45.088;7.658;2023-12-29T05:11:22;99403.81;;;1.15;100.00
74798;BME280;63326;45.088;7.658;2023-12-29T05:13:48;99402.44;;;1.10;100.00
74798;BME280;63326;45.088;7.658;2023-12-29T05:16:15;99391.63;;;1.13;100.00
74798;BME280;63326;45.088;7.658;2023-12-29T05:18:42;99369.31;;;1.04;100.00
74798;BME280;63326;45.088;7.658;2023-12-29T05:21:16;99362.25;;;1.05;100.00
74798;BME280;63326;45.088;7.658;2023-12-29T05:23:46;99406.78;;;1.35;100.00
74798;BME280;63326;45.088;7.658;2023-12-29T05:26:14;99395.88;;;1.39;100.00
74798;BME280;63326;45.088;7.658;2023-12-29T05:28:41;99396.06;;;1.49;100.00
74798;BME280;63326;45.088;7.658;2023-12-29T05:31:08;99401.50;;;1.58;100.00
74798;BME280;63326;45.088;7.658;2023-12-29T05:33:35;99419.38;;;1.68;100.00
74798;BME280;63326;45.088;7.658;2023-12-29T05:36:07;99417.03;;;1.63;100.00
74798;BME280;63326;45.088;7.658;2023-12-29T05:38:35;99411.63;;;1.65;100.00
74798;BME280;63326;45.088;7.658;2023-12-29T05:41:02;99391.38;;;1.52;100.00
74798;BME280;63326;45.088;7.658;2023-12-29T05:43:31;99395.03;;;1.63;100.00
74798;BME280;63326;45.088;7.658;2023-12-29T05:45:59;99410.81;;;1.75;100.00
74798;BME280;63326;45.088;7.658;2023-12-29T05:48:26;99403.63;;;1.77;100.00
74798;BME280;63326;45.088;7.658;2023-12-29T05:50:53;99401.84;;;1.78;100.00
74798;BME280;63326;45.088;7.658;2023-12-29T05:53:20;99395.19;;;1.72;100.00
74798;BME280;63326;45.088;7.658;2023-12-29T05:55:46;99412.78;;;1.84;100.00
74798;BME280;63326;45.088;7.658;2023-12-29T05:58:13;99379.16;;;1.74;100.00
74798;BME280;63326;45.088;7.658;2023-12-29T06:00:40;99388.34;;;1.81;100.00
74798;BME280;63326;45.088;7.658;2023-12-29T06:03:06;99424.66;;;2.03;100.00
74798;BME280;63326;45.088;7.658;2023-12-29T06:05:33;99415.00;;;1.91;100.00
74798;BME280;63326;45.088;7.658;2023-12-29T06:08:00;99415.28;;;1.99;100.00
74798;BME280;63326;45.088;7.658;2023-12-29T06:10:27;99399.50;;;1.97;100.00
74798;BME280;63326;45.088;7.658;2023-12-29T06:12:54;99422.72;;;2.05;100.00
74798;BME280;63326;45.088;7.658;2023-12-29T06:15:20;99418.28;;;2.05;100.00
74798;BME280;63326;45.088;7.658;2023-12-29T06:17:48;99415.53;;;2.07;100.00
74798;BME280;63326;45.088;7.658;2023-12-29T06:20:14;99397.94;;;2.06;100.00
74798;BME280;63326;45.088;7.658;2023-12-29T06:22:41;99399.16;;;2.13;100.00
74798;BME280;63326;45.088;7.658;2023-12-29T06:25:09;99422.81;;;2.27;100.00
74798;BME280;63326;45.088;7.658;2023-12-29T06:27:37;99391.34;;;2.11;100.00
74798;BME280;63326;45.088;7.658;2023-12-29T06:30:06;99394.97;;;2.22;100.00
74798;BME280;63326;45.088;7.658;2023-12-29T06:32:33;99407.25;;;2.23;100.00
74798;BME280;63326;45.088;7.658;2023-12-29T06:35:00;99399.03;;;2.14;100.00
74798;BME280;63326;45.088;7.658;2023-12-29T06:37:26;99408.22;;;2.22;100.00
74798;BME280;63326;45.088;7.658;2023-12-29T06:39:53;99384.47;;;2.09;100.00
74798;BME280;63326;45.088;7.658;2023-12-29T06:42:20;99402.66;;;2.25;100.00
74798;BME280;63326;45.088;7.658;2023-12-29T06:44:46;99402.06;;;2.21;100.00
74798;BME280;63326;45.088;7.658;2023-12-29T06:47:13;99381.94;;;2.07;100.00
74798;BME280;63326;45.088;7.658;2023-12-29T06:49:40;99375.44;;;2.11;100.00
74798;BME280;63326;45.088;7.658;2023-12-29T06:52:07;99354.81;;;2.04;100.00
74798;BME280;63326;45.088;7.658;2023-12-29T06:54:34;99373.66;;;2.23;100.00
74798;BME280;63326;45.088;7.658;2023-12-29T06:57:02;99407.28;;;2.45;100.00
74798;BME280;63326;45.088;7.658;2023-12-29T06:59:29;99386.44;;;2.40;100.00
74798;BME280;63326;45.088;7.658;2023-12-29T07:01:55;99398.28;;;2.47;100.00
74798;BME280;63326;45.088;7.658;2023-12-29T07:04:22;99390.41;;;2.46;100.00
74798;BME280;63326;45.088;7.658;2023-12-29T07:06:49;99373.31;;;2.39;100.00
74798;BME280;63326;45.088;7.658;2023-12-29T07:09:15;99413.69;;;2.76;100.00
74798;BME280;63326;45.088;7.658;2023-12-29T07:11:47;99378.38;;;2.53;100.00
74798;BME280;63326;45.088;7.658;2023-12-29T07:14:15;99382.25;;;2.60;100.00
74798;BME280;63326;45.088;7.658;2023-12-29T07:16:42;99424.91;;;2.91;100.00
74798;BME280;63326;45.088;7.658;2023-12-29T07:19:08;99411.16;;;2.86;100.00
74798;BME280;63326;45.088;7.658;2023-12-29T07:21:35;99378.03;;;2.69;100.00
74798;BME280;63326;45.088;7.658;2023-12-29T07:24:02;99358.97;;;2.53;100.00
74798;BME280;63326;45.088;7.658;2023-12-29T07:26:29;99374.75;;;2.65;100.00
74798;BME280;63326;45.088;7.658;2023-12-29T07:28:55;99401.16;;;2.89;100.00
74798;BME280;63326;45.088;7.658;2023-12-29T07:31:23;99411.16;;;2.97;100.00
74798;BME280;63326;45.088;7.658;2023-12-29T07:33:50;99369.56;;;2.86;100.00
74798;BME280;63326;45.088;7.658;2023-12-29T07:36:17;99383.91;;;2.95;100.00
74798;BME280;63326;45.088;7.658;2023-12-29T07:38:44;99362.81;;;2.82;100.00
74798;BME280;63326;45.088;7.658;2023-12-29T07:41:11;99342.72;;;2.68;100.00
74798;BME280;63326;45.088;7.658;2023-12-29T07:43:37;99377.50;;;2.97;100.00
74798;BME280;63326;45.088;7.658;2023-12-29T07:46:04;99373.38;;;3.16;100.00
74798;BME280;63326;45.088;7.658;2023-12-29T07:48:30;99395.06;;;3.32;100.00
74798;BME280;63326;45.088;7.658;2023-12-29T07:50:58;99381.56;;;3.24;100.00
74798;BME280;63326;45.088;7.658;2023-12-29T07:53:29;99383.19;;;3.47;100.00
74798;BME280;63326;45.088;7.658;2023-12-29T07:55:56;99358.47;;;3.36;100.00
74798;BME280;63326;45.088;7.658;2023-12-29T07:58:22;99392.78;;;3.59;100.00
74798;BME280;63326;45.088;7.658;2023-12-29T08:00:49;99391.31;;;3.67;100.00
74798;BME280;63326;45.088;7.658;2023-12-29T08:03:16;99377.47;;;3.63;100.00
74798;BME280;63326;45.088;7.658;2023-12-29T08:05:42;99398.16;;;3.80;100.00
74798;BME280;63326;45.088;7.658;2023-12-29T08:08:09;99366.84;;;3.63;100.00
74798;BME280;63326;45.088;7.658;2023-12-29T08:10:36;99364.47;;;3.81;100.00
74798;BME280;63326;45.088;7.658;2023-12-29T08:13:03;99342.16;;;3.72;100.00
74798;BME280;63326;45.088;7.658;2023-12-29T08:15:30;99405.31;;;4.22;100.00
74798;BME280;63326;45.088;7.658;2023-12-29T08:17:56;99381.72;;;4.07;100.00
74798;BME280;63326;45.088;7.658;2023-12-29T08:20:23;99405.91;;;4.25;100.00
74798;BME280;63326;45.088;7.658;2023-12-29T08:22:50;99413.31;;;4.22;100.00
74798;BME280;63326;45.088;7.658;2023-12-29T08:25:17;99367.00;;;4.03;100.00
74798;BME280;63326;45.088;7.658;2023-12-29T08:27:44;99368.03;;;4.12;100.00
74798;BME280;63326;45.088;7.658;2023-12-29T08:30:11;99421.13;;;4.44;100.00
74798;BME280;63326;45.088;7.658;2023-12-29T08:32:38;99390.28;;;4.32;100.00
74798;BME280;63326;45.088;7.658;2023-12-29T08:35:05;99373.44;;;4.31;100.00
74798;BME280;63326;45.088;7.658;2023-12-29T08:37:33;99398.22;;;4.53;100.00
74798;BME280;63326;45.088;7.658;2023-12-29T08:39:59;99424.53;;;4.76;100.00
74798;BME280;63326;45.088;7.658;2023-12-29T08:42:28;99387.78;;;4.70;100.00
74798;BME280;63326;45.088;7.658;2023-12-29T08:44:54;99386.16;;;4.79;100.00
74798;BME280;63326;45.088;7.658;2023-12-29T08:47:21;99417.69;;;5.04;100.00
74798;BME280;63326;45.088;7.658;2023-12-29T08:49:48;99368.53;;;4.88;100.00
74798;BME280;63326;45.088;7.658;2023-12-29T08:52:15;99376.06;;;5.03;100.00
74798;BME280;63326;45.088;7.658;2023-12-29T08:54:42;99394.72;;;5.23;100.00
74798;BME280;63326;45.088;7.658;2023-12-29T08:57:09;99393.78;;;5.33;100.00
74798;BME280;63326;45.088;7.658;2023-12-29T08:59:36;99378.66;;;5.34;100.00
74798;BME280;63326;45.088;7.658;2023-12-29T09:02:03;99425.78;;;5.62;100.00
74798;BME280;63326;45.088;7.658;2023-12-29T09:04:30;99403.75;;;5.51;100.00
74798;BME280;63326;45.088;7.658;2023-12-29T09:06:56;99379.75;;;5.31;100.00
74798;BME280;63326;45.088;7.658;2023-12-29T09:09:23;99408.41;;;5.68;100.00
74798;BME280;63326;45.088;7.658;2023-12-29T09:11:50;99431.72;;;5.85;100.00
74798;BME280;63326;45.088;7.658;2023-12-29T09:14:16;99432.81;;;5.92;100.00
74798;BME280;63326;45.088;7.658;2023-12-29T09:16:43;99442.25;;;5.87;98.17
74798;BME280;63326;45.088;7.658;2023-12-29T09:19:12;99414.16;;;5.83;99.51
74798;BME280;63326;45.088;7.658;2023-12-29T09:21:56;99408.44;;;6.07;97.29
74798;BME280;63326;45.088;7.658;2023-12-29T09:24:23;99428.75;;;6.17;97.03
74798;BME280;63326;45.088;7.658;2023-12-29T09:26:49;99455.53;;;6.35;96.66
74798;BME280;63326;45.088;7.658;2023-12-29T09:29:17;99390.47;;;5.89;95.25
74798;BME280;63326;45.088;7.658;2023-12-29T09:31:44;99417.25;;;6.07;95.53
74798;BME280;63326;45.088;7.658;2023-12-29T09:34:10;99434.50;;;6.32;95.72
74798;BME280;63326;45.088;7.658;2023-12-29T09:36:37;99457.19;;;6.65;94.88
74798;BME280;63326;45.088;7.658;2023-12-29T09:39:04;99440.31;;;6.65;91.98
74798;BME280;63326;45.088;7.658;2023-12-29T09:41:31;99441.88;;;6.67;91.12
74798;BME280;63326;45.088;7.658;2023-12-29T09:44:01;99466.94;;;6.94;90.64
74798;BME280;63326;45.088;7.658;2023-12-29T09:46:27;99487.56;;;7.11;89.94
74798;BME280;63326;45.088;7.658;2023-12-29T09:49:02;99474.63;;;7.06;89.18
74798;BME280;63326;45.088;7.658;2023-12-29T09:51:31;99470.66;;;7.20;88.67
74798;BME280;63326;45.088;7.658;2023-12-29T09:53:58;99467.97;;;7.20;86.69
74798;BME280;63326;45.088;7.658;2023-12-29T09:56:25;99486.91;;;7.36;86.78
74798;BME280;63326;45.088;7.658;2023-12-29T09:58:52;99479.84;;;7.45;86.47
74798;BME280;63326;45.088;7.658;2023-12-29T10:01:24;99459.06;;;7.39;84.83
74798;BME280;63326;45.088;7.658;2023-12-29T10:03:51;99460.09;;;7.56;83.69
74798;BME280;63326;45.088;7.658;2023-12-29T10:06:23;99481.03;;;7.78;83.03
74798;BME280;63326;45.088;7.658;2023-12-29T10:08:51;99429.25;;;7.61;81.11
74798;BME280;63326;45.088;7.658;2023-12-29T10:11:21;99457.84;;;7.79;80.84
74798;BME280;63326;45.088;7.658;2023-12-29T10:13:50;99408.31;;;7.57;81.00
74798;BME280;63326;45.088;7.658;2023-12-29T10:16:28;99431.19;;;7.69;80.99
74798;BME280;63326;45.088;7.658;2023-12-29T10:19:09;99454.63;;;7.93;79.84
74798;BME280;63326;45.088;7.658;2023-12-29T10:21:45;99435.25;;;7.91;79.44
74798;BME280;63326;45.088;7.658;2023-12-29T10:24:21;99445.78;;;8.10;78.43
74798;BME280;63326;45.088;7.658;2023-12-29T10:26:48;99436.44;;;8.14;78.44
74798;BME280;63326;45.088;7.658;2023-12-29T10:29:16;99423.22;;;8.13;77.78
74798;BME280;63326;45.088;7.658;2023-12-29T10:31:45;99409.00;;;8.12;77.75
74798;BME280;63326;45.088;7.658;2023-12-29T10:34:25;99416.88;;;8.32;77.25
74798;BME280;63326;45.088;7.658;2023-12-29T10:36:56;99415.53;;;8.36;76.99
74798;BME280;63326;45.088;7.658;2023-12-29T10:39:24;99436.06;;;8.71;75.95
74798;BME280;63326;45.088;7.658;2023-12-29T10:42:03;99385.50;;;8.42;75.44
74798;BME280;63326;45.088;7.658;2023-12-29T10:44:31;99367.00;;;8.57;74.11
74798;BME280;63326;45.088;7.658;2023-12-29T10:46:58;99388.22;;;8.76;73.08
74798;BME280;63326;45.088;7.658;2023-12-29T10:49:25;99386.41;;;8.85;71.43
74798;BME280;63326;45.088;7.658;2023-12-29T10:51:51;99424.47;;;8.96;72.64
74798;BME280;63326;45.088;7.658;2023-12-29T10:54:21;99384.97;;;8.64;73.23
74798;BME280;63326;45.088;7.658;2023-12-29T10:57:02;99384.53;;;8.77;73.08
74798;BME280;63326;45.088;7.658;2023-12-29T10:59:29;99430.38;;;9.08;73.07
74798;BME280;63326;45.088;7.658;2023-12-29T11:01:56;99398.34;;;8.98;72.73
74798;BME280;63326;45.088;7.658;2023-12-29T11:04:23;99358.84;;;8.92;71.91
74798;BME280;63326;45.088;7.658;2023-12-29T11:06:50;99384.84;;;9.08;71.66
74798;BME280;63326;45.088;7.658;2023-12-29T11:09:30;99398.06;;;9.44;70.03
74798;BME280;63326;45.088;7.658;2023-12-29T11:12:02;99392.22;;;9.48;70.17
74798;BME280;63326;45.088;7.658;2023-12-29T11:14:29;99382.84;;;9.60;68.10
74798;BME280;63326;45.088;7.658;2023-12-29T11:16:57;99396.31;;;9.77;68.68
74798;BME280;63326;45.088;7.658;2023-12-29T11:19:25;99383.09;;;9.83;68.63
74798;BME280;63326;45.088;7.658;2023-12-29T11:21:54;99394.16;;;10.05;67.83
74798;BME280;63326;45.088;7.658;2023-12-29T11:24:22;99393.81;;;10.16;66.52
74798;BME280;63326;45.088;7.658;2023-12-29T11:27:05;99339.13;;;10.01;65.44
74798;BME280;63326;45.088;7.658;2023-12-29T11:29:35;99359.78;;;10.16;65.63
74798;BME280;63326;45.088;7.658;2023-12-29T11:32:03;99345.34;;;10.25;63.69
74798;BME280;63326;45.088;7.658;2023-12-29T11:34:41;99342.47;;;10.27;63.32
74798;BME280;63326;45.088;7.658;2023-12-29T11:37:40;99377.16;;;10.61;62.51
74798;BME280;63326;45.088;7.658;2023-12-29T11:40:23;99378.78;;;10.78;62.26
74798;BME280;63326;45.088;7.658;2023-12-29T11:42:53;99334.00;;;10.63;62.21
74798;BME280;63326;45.088;7.658;2023-12-29T11:45:33;99378.13;;;10.85;61.05
74798;BME280;63326;45.088;7.658;2023-12-29T11:48:02;99308.59;;;10.18;62.35
74798;BME280;63326;45.088;7.658;2023-12-29T11:50:34;99362.91;;;10.52;62.34
74798;BME280;63326;45.088;7.658;2023-12-29T11:53:03;99368.31;;;10.28;63.76
74798;BME280;63326;45.088;7.658;2023-12-29T11:55:34;99363.91;;;10.51;63.97
74798;BME280;63326;45.088;7.658;2023-12-29T11:58:03;99345.81;;;10.21;62.87
74798;BME280;63326;45.088;7.658;2023-12-29T12:00:45;99355.06;;;10.02;64.56
74798;BME280;63326;45.088;7.658;2023-12-29T12:03:26;99355.91;;;9.86;65.08
74798;BME280;63326;45.088;7.658;2023-12-29T12:05:55;99305.25;;;10.00;64.86
74798;BME280;63326;45.088;7.658;2023-12-29T12:08:32;99312.59;;;10.38;63.68
74798;BME280;63326;45.088;7.658;2023-12-29T12:11:41;99337.53;;;10.63;63.11
74798;BME280;63326;45.088;7.658;2023-12-29T12:14:08;99332.97;;;10.88;61.79
74798;BME280;63326;45.088;7.658;2023-12-29T12:19:14;99321.88;;;11.22;60.87
74798;BME280;63326;45.088;7.658;2023-12-29T12:21:41;99277.50;;;11.26;59.70
74798;BME280;63326;45.088;7.658;2023-12-29T12:24:13;99214.09;;;11.09;58.46
74798;BME280;63326;45.088;7.658;2023-12-29T12:26:40;99274.22;;;11.62;58.12
74798;BME280;63326;45.088;7.658;2023-12-29T12:29:07;99265.69;;;11.58;56.68
74798;BME280;63326;45.088;7.658;2023-12-29T12:31:34;99255.59;;;11.75;56.37
74798;BME280;63326;45.088;7.658;2023-12-29T12:34:01;99275.69;;;11.87;56.02
74798;BME280;63326;45.088;7.658;2023-12-29T12:36:28;99258.38;;;11.67;57.53
74798;BME280;63326;45.088;7.658;2023-12-29T12:38:56;99279.22;;;11.88;57.15
74798;BME280;63326;45.088;7.658;2023-12-29T12:41:24;99228.78;;;11.67;56.35
74798;BME280;63326;45.088;7.658;2023-12-29T12:46:24;99260.50;;;12.09;55.64
74798;BME280;63326;45.088;7.658;2023-12-29T12:48:53;99264.88;;;12.10;55.37
74798;BME280;63326;45.088;7.658;2023-12-29T12:51:22;99206.00;;;11.78;55.49
74798;BME280;63326;45.088;7.658;2023-12-29T12:53:48;99237.47;;;11.92;55.63
74798;BME280;63326;45.088;7.658;2023-12-29T12:56:17;99233.09;;;11.91;55.49
74798;BME280;63326;45.088;7.658;2023-12-29T12:58:46;99235.72;;;11.99;55.23
74798;BME280;63326;45.088;7.658;2023-12-29T13:01:14;99274.31;;;12.29;55.46
74798;BME280;63326;45.088;7.658;2023-12-29T13:03:41;99271.31;;;12.24;54.91
74798;BME280;63326;45.088;7.658;2023-12-29T13:06:08;99270.44;;;12.09;54.75
74798;BME280;63326;45.088;7.658;2023-12-29T13:08:35;99256.56;;;11.82;56.29
74798;BME280;63326;45.088;7.658;2023-12-29T13:11:09;99262.88;;;11.89;56.96
74798;BME280;63326;45.088;7.658;2023-12-29T13:13:40;99257.06;;;12.01;56.29
74798;BME280;63326;45.088;7.658;2023-12-29T13:16:07;99247.63;;;11.44;56.32
74798;BME280;63326;45.088;7.658;2023-12-29T13:18:34;99248.03;;;11.10;58.28